Time;durP1;ratioP1;P1;durP2;ratioP2;P2;SDS_P1;SDS_P2;PMS_P1;PMS_P2;Temp;Humidity;BMP_temperature;BMP_pressure;BME280_temperature;BME280_humidity;BME280_pressure;Samples;Min_cycle;Max_cycle;Signal;HPM_P1;HPM_P2
2022/12/13 00:02:15;;;;;;;31.95;21.30;;;;;;;;;;5064710;28;20044;-76
2022/12/13 00:04:41;;;;;;;31.52;20.48;;;;;;;;;;5071048;28;20110;-76
2022/12/13 00:07:07;;;;;;;39.50;21.13;;;;;;;;;;5068640;28;20044;-76
2022/12/13 00:09:33;;;;;;;33.40;20.85;;;;;;;;;;5066493;28;20040;-76
2022/12/13 00:11:59;;;;;;;31.20;21.13;;;;;;;;;;5067902;28;20102;-76
2022/12/13 00:14:25;;;;;;;33.58;20.48;;;;;;;;;;5060028;28;21241;-76
2022/12/13 00:16:51;;;;;;;34.63;21.50;;;;;;;;;;5063234;28;20047;-76
2022/12/13 00:19:17;;;;;;;35.10;21.67;;;;;;;;;;5066439;28;20056;-77
2022/12/13 00:21:43;;;;;;;33.40;21.92;;;;;;;;;;5064329;28;20040;-76
2022/12/13 00:24:09;;;;;;;31.25;19.92;;;;;;;;;;5067308;28;20032;-77
2022/12/13 00:26:35;;;;;;;30.02;20.83;;;;;;;;;;5060283;28;20071;-76
2022/12/13 00:29:03;;;;;;;31.83;21.30;;;;;;;;;;5062699;28;20136;-76
2022/12/13 00:31:30;;;;;;;35.53;20.85;;;;;;;;;;5059801;28;20048;-77
2022/12/13 00:33:57;;;;;;;30.02;20.02;;;;;;;;;;5065150;28;20049;-77
2022/12/13 00:36:23;;;;;;;29.77;19.58;;;;;;;;;;5068493;28;20396;-77
2022/12/13 00:39:01;;;;;;;31.95;20.77;;;;;;;;;;5061035;28;20056;-76
2022/12/13 00:41:31;;;;;;;31.70;20.38;;;;;;;;;;5066035;28;20625;-76
2022/12/13 00:43:57;;;;;;;30.77;19.20;;;;;;;;;;5060858;28;20032;-76
2022/12/13 00:46:24;;;;;;;29.92;19.80;;;;;;;;;;5065424;28;20423;-78
2022/12/13 00:48:51;;;;;;;30.17;19.85;;;;;;;;;;5065852;28;20037;-76
2022/12/13 00:51:17;;;;;;;30.48;19.60;;;;;;;;;;5064226;28;20033;-76
2022/12/13 00:53:43;;;;;;;30.02;19.67;;;;;;;;;;5066098;28;20488;-76
2022/12/13 00:56:13;;;;;;;27.98;18.33;;;;;;;;;;5063401;28;20133;-77
2022/12/13 00:58:39;;;;;;;29.45;18.98;;;;;;;;;;5064527;28;20450;-76
2022/12/13 01:01:10;;;;;;;29.23;19.40;;;;;;;;;;5061194;28;20048;-76
2022/12/13 01:03:36;;;;;;;27.83;19.13;;;;;;;;;;5057619;28;20049;-76
2022/12/13 01:06:08;;;;;;;30.40;19.58;;;;;;;;;;5066169;28;20476;-77
2022/12/13 01:08:34;;;;;;;31.73;20.05;;;;;;;;;;5065697;28;20476;-77
2022/12/13 01:11:00;;;;;;;31.42;18.98;;;;;;;;;;5064997;28;20044;-77
2022/12/13 01:13:26;;;;;;;29.23;18.75;;;;;;;;;;5058730;28;20090;-77
2022/12/13 01:15:52;;;;;;;31.13;18.48;;;;;;;;;;5053698;28;20045;-77
2022/12/13 01:18:18;;;;;;;31.40;19.95;;;;;;;;;;5053781;28;20045;-77
2022/12/13 01:20:57;;;;;;;28.60;18.33;;;;;;;;;;5055801;28;20105;-77
2022/12/13 01:23:23;;;;;;;28.58;19.42;;;;;;;;;;5055917;28;20040;-77
2022/12/13 01:25:49;;;;;;;28.02;18.77;;;;;;;;;;5055395;28;20071;-78
2022/12/13 01:28:15;;;;;;;34.30;18.98;;;;;;;;;;5054326;28;20124;-77
2022/12/13 01:30:41;;;;;;;26.40;18.08;;;;;;;;;;5056065;28;20192;-77
2022/12/13 01:33:07;;;;;;;29.10;19.35;;;;;;;;;;5056325;28;20127;-77
2022/12/13 01:35:33;;;;;;;29.42;18.70;;;;;;;;;;5058252;28;20055;-77
2022/12/13 01:37:59;;;;;;;27.55;17.83;;;;;;;;;;5054396;28;20079;-78
2022/12/13 01:40:26;;;;;;;27.98;17.50;;;;;;;;;;5062988;28;20816;-77
2022/12/13 01:42:52;;;;;;;29.35;18.35;;;;;;;;;;5055460;28;20408;-77
2022/12/13 01:45:22;;;;;;;28.80;18.88;;;;;;;;;;5051516;28;20041;-77
2022/12/13 01:47:51;;;;;;;29.60;17.95;;;;;;;;;;5054920;28;20044;-77
2022/12/13 01:50:26;;;;;;;29.15;17.80;;;;;;;;;;5054888;28;20082;-77
2022/12/13 01:52:53;;;;;;;29.48;17.67;;;;;;;;;;5054657;28;20040;-77
2022/12/13 01:55:20;;;;;;;29.08;17.95;;;;;;;;;;5054621;28;20435;-77
2022/12/13 01:57:47;;;;;;;25.05;17.08;;;;;;;;;;5058021;28;20071;-77
2022/12/13 02:00:14;;;;;;;30.33;18.30;;;;;;;;;;5052453;28;20128;-78
2022/12/13 02:02:40;;;;;;;25.55;17.63;;;;;;;;;;5055816;28;20048;-77
2022/12/13 02:05:10;;;;;;;25.70;16.60;;;;;;;;;;5056150;28;20160;-77
2022/12/13 02:07:36;;;;;;;25.98;17.25;;;;;;;;;;5055824;28;20056;-77
2022/12/13 02:10:04;;;;;;;28.23;17.95;;;;;;;;;;5060473;28;20049;-77
2022/12/13 02:12:31;;;;;;;25.75;16.70;;;;;;;;;;5063350;28;20044;-77
2022/12/13 02:14:59;;;;;;;27.10;16.77;;;;;;;;;;5056577;28;20044;-77
2022/12/13 02:17:28;;;;;;;27.42;17.80;;;;;;;;;;5054685;28;20048;-77
2022/12/13 02:19:54;;;;;;;28.40;17.88;;;;;;;;;;5053620;28;20132;-76
2022/12/13 02:22:38;;;;;;;28.00;18.05;;;;;;;;;;5055406;28;20482;-76
2022/12/13 02:25:04;;;;;;;25.05;17.10;;;;;;;;;;5056995;28;20117;-76
2022/12/13 02:27:39;;;;;;;29.40;18.33;;;;;;;;;;5056463;28;20594;-76
2022/12/13 02:30:38;;;;;;;29.95;17.98;;;;;;;;;;5055066;28;20060;-75
2022/12/13 02:33:23;;;;;;;31.20;18.20;;;;;;;;;;5023310;28;20056;-75
2022/12/13 02:36:06;;;;;;;29.27;18.60;;;;;;;;;;5051984;28;20059;-75
2022/12/13 02:38:51;;;;;;;27.13;17.92;;;;;;;;;;5060634;28;20041;-75
2022/12/13 02:41:33;;;;;;;27.17;18.27;;;;;;;;;;5059082;28;20045;-76
2022/12/13 02:44:02;;;;;;;27.08;16.67;;;;;;;;;;5058965;28;20045;-76
2022/12/13 02:46:29;;;;;;;31.20;19.33;;;;;;;;;;5058786;28;20037;-75
2022/12/13 02:48:56;;;;;;;27.33;17.70;;;;;;;;;;5064841;28;20040;-75
2022/12/13 02:51:22;;;;;;;25.95;16.83;;;;;;;;;;5055311;28;20045;-75
2022/12/13 02:53:51;;;;;;;26.75;17.00;;;;;;;;;;5064109;28;20036;-75
2022/12/13 02:56:17;;;;;;;55.78;27.25;;;;;;;;;;5064085;28;20049;-75
2022/12/13 02:58:49;;;;;;;70.05;32.60;;;;;;;;;;5058855;28;20123;-75
2022/12/13 03:01:22;;;;;;;69.65;31.65;;;;;;;;;;5063659;28;20185;-75
2022/12/13 03:04:07;;;;;;;52.78;25.05;;;;;;;;;;5061932;28;20040;-75
2022/12/13 03:06:42;;;;;;;33.72;20.23;;;;;;;;;;5060429;28;20110;-75
2022/12/13 03:09:19;;;;;;;27.40;18.55;;;;;;;;;;5059530;28;20397;-75
2022/12/13 03:14:34;;;;;;;27.42;17.92;;;;;;;;;;5058693;28;20041;-75
2022/12/13 03:17:02;;;;;;;28.58;17.88;;;;;;;;;;5059382;28;20052;-75
2022/12/13 03:19:28;;;;;;;28.67;18.05;;;;;;;;;;5057914;28;20045;-76
2022/12/13 03:21:54;;;;;;;45.70;23.35;;;;;;;;;;5058868;28;20098;-75
2022/12/13 03:24:21;;;;;;;54.08;27.33;;;;;;;;;;5060998;28;20055;-76
2022/12/13 03:26:48;;;;;;;69.80;29.48;;;;;;;;;;5059842;28;20051;-75
2022/12/13 03:29:14;;;;;;;61.97;28.98;;;;;;;;;;5058699;28;20051;-75
2022/12/13 03:31:40;;;;;;;55.00;27.27;;;;;;;;;;5059488;28;20419;-76
2022/12/13 03:34:06;;;;;;;40.05;22.52;;;;;;;;;;5056129;28;20044;-75
2022/12/13 03:36:32;;;;;;;35.42;20.48;;;;;;;;;;5058153;28;20041;-76
2022/12/13 03:38:58;;;;;;;31.05;19.60;;;;;;;;;;5058071;28;20044;-75
2022/12/13 03:41:30;;;;;;;30.13;17.92;;;;;;;;;;5063641;28;20067;-75
2022/12/13 03:43:56;;;;;;;27.85;17.67;;;;;;;;;;5057154;28;20553;-75
2022/12/13 03:46:22;;;;;;;29.95;18.90;;;;;;;;;;5056491;28;20145;-75
2022/12/13 03:48:48;;;;;;;27.17;18.38;;;;;;;;;;5058039;28;20159;-75
2022/12/13 03:51:14;;;;;;;29.13;18.15;;;;;;;;;;5057924;28;20119;-76
2022/12/13 03:53:40;;;;;;;28.58;18.38;;;;;;;;;;5058901;28;20084;-75
2022/12/13 03:56:06;;;;;;;28.42;18.88;;;;;;;;;;5058500;28;20087;-75
2022/12/13 03:58:33;;;;;;;27.15;18.25;;;;;;;;;;5060070;28;20436;-75
2022/12/13 04:00:59;;;;;;;28.40;18.83;;;;;;;;;;5054670;28;21113;-75
2022/12/13 04:03:25;;;;;;;39.13;22.95;;;;;;;;;;5060020;28;20044;-75
2022/12/13 04:05:51;;;;;;;32.45;18.75;;;;;;;;;;5067818;28;20044;-76
2022/12/13 04:08:17;;;;;;;28.75;19.13;;;;;;;;;;5064999;28;20037;-75
2022/12/13 04:10:43;;;;;;;29.00;19.50;;;;;;;;;;5064423;28;20047;-75
2022/12/13 04:15:57;;;;;;;28.20;19.00;;;;;;;;;;5062197;28;20044;-75
2022/12/13 04:18:23;;;;;;;25.13;18.27;;;;;;;;;;5053179;28;20043;-75
2022/12/13 04:20:50;;;;;;;25.92;18.77;;;;;;;;;;5058957;28;20119;-75
2022/12/13 04:23:16;;;;;;;25.42;19.17;;;;;;;;;;5055603;28;20068;-75
2022/12/13 04:25:42;;;;;;;24.90;18.65;;;;;;;;;;5060321;28;20082;-75
2022/12/13 04:28:08;;;;;;;25.98;19.23;;;;;;;;;;5056449;28;20151;-75
2022/12/13 04:30:35;;;;;;;27.02;19.38;;;;;;;;;;5058259;28;20081;-75
2022/12/13 04:33:01;;;;;;;32.70;19.65;;;;;;;;;;5057460;28;20061;-75
2022/12/13 04:35:27;;;;;;;28.33;19.95;;;;;;;;;;5055433;28;20539;-75
2022/12/13 04:37:53;;;;;;;28.40;19.52;;;;;;;;;;5059847;28;20099;-75
2022/12/13 04:40:19;;;;;;;27.25;20.05;;;;;;;;;;5060761;28;20037;-75
2022/12/13 04:42:45;;;;;;;29.85;19.98;;;;;;;;;;5060838;28;20109;-75
2022/12/13 04:45:15;;;;;;;31.10;20.80;;;;;;;;;;5056726;28;20087;-75
2022/12/13 04:47:41;;;;;;;25.60;18.90;;;;;;;;;;5057663;28;20437;-75
2022/12/13 04:50:08;;;;;;;27.45;18.65;;;;;;;;;;5056592;28;20047;-75
2022/12/13 04:52:34;;;;;;;27.70;19.35;;;;;;;;;;5058259;28;20055;-75
2022/12/13 04:55:00;;;;;;;26.98;19.08;;;;;;;;;;5058723;28;20132;-75
2022/12/13 04:57:26;;;;;;;24.80;16.80;;;;;;;;;;5056239;28;20137;-75
2022/12/13 04:59:52;;;;;;;25.15;18.95;;;;;;;;;;5059114;28;20045;-75
2022/12/13 05:02:18;;;;;;;26.30;18.90;;;;;;;;;;5056370;28;20395;-75
2022/12/13 05:04:45;;;;;;;25.15;19.15;;;;;;;;;;5055362;28;20052;-75
2022/12/13 05:07:11;;;;;;;29.83;18.50;;;;;;;;;;5056275;28;20127;-75
2022/12/13 05:09:37;;;;;;;27.73;19.30;;;;;;;;;;5061636;28;20041;-75
2022/12/13 05:12:03;;;;;;;26.08;17.83;;;;;;;;;;5064589;28;20056;-75
2022/12/13 05:14:30;;;;;;;27.58;19.33;;;;;;;;;;5066052;28;20045;-75
2022/12/13 05:16:56;;;;;;;27.38;19.05;;;;;;;;;;5054703;28;20381;-75
2022/12/13 05:19:22;;;;;;;26.70;19.60;;;;;;;;;;5054832;28;20052;-75
2022/12/13 05:21:48;;;;;;;25.80;18.40;;;;;;;;;;5057132;28;20037;-75
2022/12/13 05:24:14;;;;;;;28.00;18.15;;;;;;;;;;5054711;28;20052;-75
2022/12/13 05:26:40;;;;;;;23.20;18.63;;;;;;;;;;5056820;28;21848;-75
2022/12/13 05:29:06;;;;;;;28.63;20.00;;;;;;;;;;5055689;28;20475;-75
2022/12/13 05:31:32;;;;;;;29.20;19.25;;;;;;;;;;5056514;28;20044;-75
2022/12/13 05:33:58;;;;;;;26.02;19.60;;;;;;;;;;5055041;28;20098;-75
2022/12/13 05:36:25;;;;;;;25.35;17.83;;;;;;;;;;5055950;28;20053;-75
2022/12/13 05:38:51;;;;;;;30.45;19.17;;;;;;;;;;5054577;28;20032;-75
2022/12/13 05:41:19;;;;;;;27.13;18.42;;;;;;;;;;5062150;28;20087;-75
2022/12/13 05:43:45;;;;;;;24.80;18.17;;;;;;;;;;5057145;28;20167;-75
2022/12/13 05:46:12;;;;;;;21.42;16.92;;;;;;;;;;5057296;28;20540;-75
2022/12/13 05:48:38;;;;;;;24.02;17.65;;;;;;;;;;5056080;28;20144;-75
2022/12/13 05:51:04;;;;;;;25.52;17.35;;;;;;;;;;5054497;28;20101;-75
2022/12/13 05:53:30;;;;;;;25.38;17.45;;;;;;;;;;5053713;28;20056;-75
2022/12/13 05:55:59;;;;;;;25.27;17.00;;;;;;;;;;5054903;28;20045;-75
2022/12/13 05:58:25;;;;;;;26.05;17.20;;;;;;;;;;5056848;28;21681;-75
2022/12/13 06:00:51;;;;;;;25.23;17.45;;;;;;;;;;5055063;28;20045;-75
2022/12/13 06:03:17;;;;;;;23.85;16.13;;;;;;;;;;5065045;28;20037;-77
2022/12/13 06:05:43;;;;;;;25.15;17.35;;;;;;;;;;5062996;28;20044;-75
2022/12/13 06:08:09;;;;;;;26.75;17.65;;;;;;;;;;5059962;28;20098;-75
2022/12/13 06:10:35;;;;;;;24.33;16.85;;;;;;;;;;5064234;28;20063;-75
2022/12/13 06:13:05;;;;;;;22.33;16.67;;;;;;;;;;5065270;28;20488;-75
2022/12/13 06:15:31;;;;;;;25.85;16.05;;;;;;;;;;5056602;28;20409;-75
2022/12/13 06:17:59;;;;;;;31.50;21.27;;;;;;;;;;5054662;28;20060;-75
2022/12/13 06:20:25;;;;;;;50.97;28.80;;;;;;;;;;5053491;28;21255;-75
2022/12/13 06:22:52;;;;;;;25.38;16.85;;;;;;;;;;5054412;28;20052;-75
2022/12/13 06:25:18;;;;;;;25.83;17.73;;;;;;;;;;5055062;28;20036;-75
2022/12/13 06:27:44;;;;;;;22.08;15.85;;;;;;;;;;5053051;28;20060;-75
2022/12/13 06:30:10;;;;;;;23.58;16.20;;;;;;;;;;5053035;28;20535;-75
2022/12/13 06:32:36;;;;;;;24.83;15.95;;;;;;;;;;5057901;28;20052;-75
2022/12/13 06:35:02;;;;;;;25.38;15.90;;;;;;;;;;5060383;28;20131;-75
2022/12/13 06:37:28;;;;;;;24.15;16.65;;;;;;;;;;5060437;28;20139;-75
2022/12/13 06:39:54;;;;;;;24.35;17.48;;;;;;;;;;5067820;28;20381;-75
2022/12/13 06:42:20;;;;;;;23.10;15.63;;;;;;;;;;5061908;28;20055;-75
2022/12/13 06:44:47;;;;;;;23.65;16.45;;;;;;;;;;5065618;28;20098;-75
2022/12/13 06:47:13;;;;;;;22.92;15.57;;;;;;;;;;5069756;28;20050;-75
2022/12/13 06:49:40;;;;;;;23.67;15.57;;;;;;;;;;5064394;28;20408;-74
2022/12/13 06:52:07;;;;;;;24.45;16.70;;;;;;;;;;5065922;28;20048;-75
2022/12/13 06:54:34;;;;;;;25.00;16.05;;;;;;;;;;5067314;28;20038;-75
2022/12/13 06:57:00;;;;;;;24.67;15.77;;;;;;;;;;5061056;28;20052;-75
2022/12/13 06:59:26;;;;;;;23.13;15.38;;;;;;;;;;5067265;28;20049;-75
2022/12/13 07:01:52;;;;;;;24.75;16.23;;;;;;;;;;5069828;28;20045;-75
2022/12/13 07:04:18;;;;;;;21.83;15.05;;;;;;;;;;5068635;28;20041;-75
2022/12/13 07:06:44;;;;;;;20.58;15.38;;;;;;;;;;5069589;28;20059;-75
2022/12/13 07:09:10;;;;;;;22.88;16.02;;;;;;;;;;5066171;28;20041;-75
2022/12/13 07:11:36;;;;;;;25.23;17.58;;;;;;;;;;5069240;28;20071;-75
2022/12/13 07:14:02;;;;;;;27.27;18.20;;;;;;;;;;5071911;28;20033;-75
2022/12/13 07:16:28;;;;;;;24.48;18.70;;;;;;;;;;5069556;28;20049;-75
2022/12/13 07:18:58;;;;;;;27.23;19.00;;;;;;;;;;5064801;28;20036;-75
2022/12/13 07:21:24;;;;;;;28.83;18.48;;;;;;;;;;5060242;28;20056;-75
2022/12/13 07:23:50;;;;;;;24.58;17.77;;;;;;;;;;5070909;28;20510;-75
2022/12/13 07:26:17;;;;;;;26.48;17.38;;;;;;;;;;5065704;28;20052;-75
2022/12/13 07:28:43;;;;;;;23.48;15.95;;;;;;;;;;5066192;28;20040;-75
2022/12/13 07:31:09;;;;;;;29.60;16.90;;;;;;;;;;5065901;28;20048;-75
2022/12/13 07:33:35;;;;;;;25.38;16.02;;;;;;;;;;5069013;28;20044;-75
2022/12/13 07:36:03;;;;;;;24.10;16.98;;;;;;;;;;5061752;28;20055;-75
2022/12/13 07:38:29;;;;;;;22.60;16.83;;;;;;;;;;5069907;28;20044;-75
2022/12/13 07:40:56;;;;;;;28.92;17.88;;;;;;;;;;5067270;28;20044;-75
2022/12/13 07:43:23;;;;;;;23.55;16.15;;;;;;;;;;5070061;28;20512;-75
2022/12/13 07:45:49;;;;;;;24.33;16.38;;;;;;;;;;5070010;28;20455;-75
2022/12/13 07:48:15;;;;;;;20.77;15.27;;;;;;;;;;5070103;28;20408;-75
2022/12/13 07:50:41;;;;;;;25.70;16.20;;;;;;;;;;5068280;28;20476;-75
2022/12/13 07:53:08;;;;;;;22.13;16.05;;;;;;;;;;5060429;28;20052;-76
2022/12/13 07:55:35;;;;;;;19.60;15.13;;;;;;;;;;5069597;28;20045;-75
2022/12/13 07:58:05;;;;;;;23.33;15.32;;;;;;;;;;5070802;28;20041;-75
2022/12/13 08:00:31;;;;;;;24.83;16.02;;;;;;;;;;5063170;28;20675;-75
2022/12/13 08:02:57;;;;;;;22.75;15.88;;;;;;;;;;5064316;28;20484;-75
2022/12/13 08:05:23;;;;;;;22.42;15.88;;;;;;;;;;5067122;28;20041;-75
2022/12/13 08:07:49;;;;;;;21.35;15.07;;;;;;;;;;5069556;28;20407;-75
2022/12/13 08:10:15;;;;;;;23.73;15.63;;;;;;;;;;5067123;28;20144;-74
2022/12/13 08:12:41;;;;;;;20.15;14.90;;;;;;;;;;5064760;28;20119;-75
2022/12/13 08:15:07;;;;;;;23.35;16.15;;;;;;;;;;5065225;28;20460;-75
2022/12/13 08:17:33;;;;;;;23.92;14.93;;;;;;;;;;5064287;28;20399;-75
2022/12/13 08:19:59;;;;;;;22.63;15.48;;;;;;;;;;5067771;28;20532;-76
2022/12/13 08:22:25;;;;;;;25.92;14.77;;;;;;;;;;5061805;28;20047;-75
2022/12/13 08:24:51;;;;;;;27.35;15.82;;;;;;;;;;5067683;28;20044;-75
2022/12/13 08:27:17;;;;;;;22.92;15.35;;;;;;;;;;5066586;28;20045;-75
2022/12/13 08:29:43;;;;;;;24.38;15.98;;;;;;;;;;5068077;28;20036;-75
2022/12/13 08:32:10;;;;;;;25.52;15.07;;;;;;;;;;5060690;28;20037;-76
2022/12/13 08:34:37;;;;;;;22.40;15.57;;;;;;;;;;5067317;28;20121;-75
2022/12/13 08:37:03;;;;;;;21.38;14.90;;;;;;;;;;5070738;28;20051;-75
2022/12/13 08:39:35;;;;;;;25.23;15.27;;;;;;;;;;5071163;28;20408;-75
2022/12/13 08:42:03;;;;;;;19.38;14.27;;;;;;;;;;5065415;28;20041;-75
2022/12/13 08:44:29;;;;;;;21.85;15.07;;;;;;;;;;5062030;28;20131;-75
2022/12/13 08:46:55;;;;;;;21.75;15.25;;;;;;;;;;5068476;28;20127;-75
2022/12/13 08:49:21;;;;;;;20.40;15.32;;;;;;;;;;5061566;28;20515;-75
2022/12/13 08:51:47;;;;;;;22.27;14.93;;;;;;;;;;5070747;28;20045;-75
2022/12/13 08:54:13;;;;;;;18.35;14.07;;;;;;;;;;5065900;28;20044;-75
2022/12/13 08:56:39;;;;;;;23.23;14.65;;;;;;;;;;5067718;28;20938;-75
2022/12/13 08:59:05;;;;;;;21.48;13.98;;;;;;;;;;5065205;28;20041;-75
2022/12/13 09:01:32;;;;;;;22.10;14.48;;;;;;;;;;5060605;28;20048;-75
2022/12/13 09:03:58;;;;;;;55.65;50.80;;;;;;;;;;5063532;28;20041;-75
2022/12/13 09:06:24;;;;;;;22.77;15.68;;;;;;;;;;5067507;28;20044;-75
2022/12/13 09:08:53;;;;;;;26.48;15.88;;;;;;;;;;5067376;28;20040;-75
2022/12/13 09:11:20;;;;;;;23.95;14.70;;;;;;;;;;5065347;28;20496;-75
2022/12/13 09:13:46;;;;;;;22.60;14.10;;;;;;;;;;5054281;28;20490;-75
2022/12/13 09:16:14;;;;;;;20.00;13.48;;;;;;;;;;5054668;28;20070;-76
2022/12/13 09:18:40;;;;;;;21.23;14.30;;;;;;;;;;5064487;28;20485;-75
2022/12/13 09:21:10;;;;;;;20.55;12.95;;;;;;;;;;5067365;28;20051;-75
2022/12/13 09:23:36;;;;;;;19.60;13.23;;;;;;;;;;5066342;28;20119;-75
2022/12/13 09:26:02;;;;;;;20.88;13.68;;;;;;;;;;5069653;28;20045;-75
2022/12/13 09:28:28;;;;;;;19.05;13.50;;;;;;;;;;5057348;28;20106;-75
2022/12/13 09:30:55;;;;;;;18.75;12.48;;;;;;;;;;5065841;28;20123;-75
2022/12/13 09:33:24;;;;;;;18.23;12.32;;;;;;;;;;5064715;28;20399;-75
2022/12/13 09:35:50;;;;;;;19.98;12.80;;;;;;;;;;5064073;28;20048;-75
2022/12/13 09:38:17;;;;;;;20.25;12.23;;;;;;;;;;5063894;28;20037;-76
2022/12/13 09:40:44;;;;;;;17.20;11.80;;;;;;;;;;5068162;28;20064;-75
2022/12/13 09:43:14;;;;;;;17.45;11.77;;;;;;;;;;5062578;28;20051;-75
2022/12/13 09:45:44;;;;;;;20.08;13.55;;;;;;;;;;5063132;28;20040;-75
2022/12/13 09:48:10;;;;;;;22.05;12.27;;;;;;;;;;5065327;28;20424;-75
2022/12/13 09:50:36;;;;;;;17.63;12.20;;;;;;;;;;5063394;28;20511;-75
2022/12/13 09:53:05;;;;;;;18.83;11.65;;;;;;;;;;5063319;28;20488;-75
2022/12/13 09:55:35;;;;;;;18.83;12.50;;;;;;;;;;5066061;28;20430;-75
2022/12/13 09:58:05;;;;;;;18.10;11.45;;;;;;;;;;5062248;28;20102;-75
2022/12/13 10:00:33;;;;;;;17.17;12.25;;;;;;;;;;5056577;28;20037;-75
2022/12/13 10:03:00;;;;;;;19.95;11.30;;;;;;;;;;5062569;28;20439;-75
2022/12/13 10:05:38;;;;;;;14.68;10.30;;;;;;;;;;5059209;28;20094;-75
2022/12/13 10:08:15;;;;;;;15.65;11.05;;;;;;;;;;5064031;28;20132;-75
2022/12/13 10:10:42;;;;;;;17.17;10.90;;;;;;;;;;5066004;28;20092;-75
2022/12/13 10:13:18;;;;;;;15.25;11.25;;;;;;;;;;5056035;28;20041;-75
2022/12/13 10:15:47;;;;;;;15.13;11.07;;;;;;;;;;5061363;28;20037;-76
2022/12/13 10:18:14;;;;;;;17.15;10.48;;;;;;;;;;5055877;28;20072;-75
2022/12/13 10:20:41;;;;;;;15.77;10.35;;;;;;;;;;5067835;28;20052;-75
2022/12/13 10:23:07;;;;;;;17.52;12.23;;;;;;;;;;5062361;28;20052;-76
2022/12/13 10:25:53;;;;;;;14.35;10.38;;;;;;;;;;5062445;28;20044;-76
2022/12/13 10:28:27;;;;;;;20.63;12.32;;;;;;;;;;5065586;28;20439;-76
2022/12/13 10:30:53;;;;;;;17.25;11.55;;;;;;;;;;5063637;28;20601;-76
2022/12/13 10:33:28;;;;;;;16.92;11.57;;;;;;;;;;5058546;28;20079;-76
2022/12/13 10:36:04;;;;;;;19.77;11.88;;;;;;;;;;5066484;28;20575;-76
2022/12/13 10:38:30;;;;;;;18.23;11.20;;;;;;;;;;5066014;28;20044;-75
2022/12/13 10:40:56;;;;;;;15.23;10.88;;;;;;;;;;5064623;28;20091;-76
2022/12/13 10:43:26;;;;;;;19.85;12.23;;;;;;;;;;5057750;28;20041;-75
2022/12/13 10:45:58;;;;;;;18.67;12.38;;;;;;;;;;5063917;28;21648;-75
2022/12/13 10:48:29;;;;;;;19.73;13.13;;;;;;;;;;5058841;28;20400;-76
2022/12/13 10:51:03;;;;;;;23.67;13.10;;;;;;;;;;5065939;28;20548;-76
2022/12/13 10:53:30;;;;;;;21.02;14.00;;;;;;;;;;5066290;28;20079;-76
2022/12/13 10:55:57;;;;;;;22.45;14.10;;;;;;;;;;5059707;28;20507;-78
2022/12/13 10:58:33;;;;;;;19.83;13.60;;;;;;;;;;5065712;28;20373;-76
2022/12/13 11:01:07;;;;;;;18.25;13.20;;;;;;;;;;5060162;28;20384;-76
2022/12/13 11:03:34;;;;;;;18.15;13.60;;;;;;;;;;5065352;28;20045;-76
2022/12/13 11:06:11;;;;;;;20.88;12.95;;;;;;;;;;5062119;28;20045;-76
2022/12/13 11:08:37;;;;;;;22.45;13.20;;;;;;;;;;5068158;28;20053;-76
2022/12/13 11:11:05;;;;;;;22.13;14.02;;;;;;;;;;5061377;28;20048;-76
2022/12/13 11:13:31;;;;;;;19.77;13.55;;;;;;;;;;5062309;28;20048;-76
2022/12/13 11:16:04;;;;;;;22.92;13.65;;;;;;;;;;5063036;28;20039;-77
2022/12/13 11:18:30;;;;;;;;;;;;;;;;;;5071122;28;20048;-77
2022/12/13 11:20:58;;;;;;;18.00;11.27;;;;;;;;;;5066484;28;19920;-76
2022/12/13 11:23:37;;;;;;;20.17;12.25;;;;;;;;;;5068470;28;20049;-76
2022/12/13 11:26:18;;;;;;;19.23;11.73;;;;;;;;;;5063576;28;20037;-76
2022/12/13 11:28:53;;;;;;;20.55;11.52;;;;;;;;;;5064737;28;20048;-76
2022/12/13 11:31:19;;;;;;;19.20;12.02;;;;;;;;;;5068232;28;20483;-76
2022/12/13 11:34:21;;;;;;;21.38;12.45;;;;;;;;;;5070731;28;20048;-76
2022/12/13 11:37:05;;;;;;;16.90;11.18;;;;;;;;;;5002141;28;20042;-76
2022/12/13 11:39:33;;;;;;;18.50;11.85;;;;;;;;;;5057580;28;20080;-76
2022/12/13 11:41:59;;;;;;;19.13;11.95;;;;;;;;;;5068638;28;20131;-76
2022/12/13 11:44:28;;;;;;;20.45;11.88;;;;;;;;;;5055006;28;20166;-76
2022/12/13 11:46:55;;;;;;;18.75;11.55;;;;;;;;;;5066787;28;20037;-75
2022/12/13 11:49:29;;;;;;;18.67;13.02;;;;;;;;;;5061179;28;20041;-75
2022/12/13 11:51:55;;;;;;;;;;;;;;;;;;5062566;28;20048;-75
2022/12/13 11:54:30;;;;;;;18.33;12.10;;;;;;;;;;5067337;28;19989;-75
2022/12/13 11:56:57;;;;;;;18.33;12.23;;;;;;;;;;5065202;28;20055;-75
2022/12/13 11:59:49;;;;;;;20.70;12.10;;;;;;;;;;5067126;28;20098;-75
2022/12/13 12:02:24;;;;;;;18.67;12.55;;;;;;;;;;5058772;28;20057;-75
2022/12/13 12:04:52;;;;;;;19.77;12.43;;;;;;;;;;5061681;28;20044;-75
2022/12/13 12:07:39;;;;;;;18.30;12.27;;;;;;;;;;5065203;28;20047;-75
2022/12/13 12:10:27;;;;;;;18.92;12.35;;;;;;;;;;5063469;28;20182;-75
2022/12/13 12:12:57;;;;;;;20.55;12.93;;;;;;;;;;5068021;28;20047;-75
2022/12/13 12:15:31;;;;;;;19.00;12.95;;;;;;;;;;5066351;28;20404;-74
2022/12/13 12:17:57;;;;;;;20.27;13.75;;;;;;;;;;5065104;28;20075;-75
2022/12/13 12:20:37;;;;;;;20.88;12.70;;;;;;;;;;5067323;28;20057;-75
2022/12/13 12:23:12;;;;;;;16.05;11.10;;;;;;;;;;5067133;28;20048;-75
2022/12/13 12:25:46;;;;;;;18.85;11.98;;;;;;;;;;5066865;28;20044;-74
2022/12/13 12:28:24;;;;;;;17.95;11.88;;;;;;;;;;5067165;28;20155;-75
2022/12/13 12:31:09;;;;;;;16.13;10.10;;;;;;;;;;5066394;28;20056;-75
2022/12/13 12:33:57;;;;;;;15.73;10.57;;;;;;;;;;5066683;28;20060;-75
2022/12/13 12:36:29;;;;;;;18.40;12.02;;;;;;;;;;5067859;28;20055;-75
2022/12/13 12:39:07;;;;;;;18.23;10.63;;;;;;;;;;5068657;28;20329;-74
2022/12/13 12:41:36;;;;;;;15.82;10.60;;;;;;;;;;5064944;28;20036;-75
2022/12/13 12:44:06;;;;;;;;;;;;;;;;;;5067689;28;20040;-75
2022/12/13 12:46:39;;;;;;;14.77;9.60;;;;;;;;;;5065628;28;20445;-75
2022/12/13 12:49:23;;;;;;;14.75;9.50;;;;;;;;;;5061959;28;20044;-75
2022/12/13 12:52:04;;;;;;;15.10;9.95;;;;;;;;;;5064533;28;20044;-75
2022/12/13 12:54:36;;;;;;;13.00;9.18;;;;;;;;;;5068078;28;20044;-75
2022/12/13 12:57:03;;;;;;;11.43;8.15;;;;;;;;;;5070399;28;20040;-75
2022/12/13 12:59:41;;;;;;;13.77;8.85;;;;;;;;;;5066230;28;20083;-75
2022/12/13 13:02:26;;;;;;;13.27;9.27;;;;;;;;;;5065136;28;20063;-75
2022/12/13 13:04:54;;;;;;;11.40;8.82;;;;;;;;;;5061994;28;20036;-75
2022/12/13 13:07:30;;;;;;;12.77;9.00;;;;;;;;;;5066529;28;20140;-75
2022/12/13 13:09:56;;;;;;;;;;;;;;;;;;5067557;28;20048;-75
2022/12/13 13:12:24;;;;;;;11.43;8.00;;;;;;;;;;5066787;28;19920;-75
2022/12/13 13:14:50;;;;;;;11.15;8.07;;;;;;;;;;5068165;28;20380;-76
2022/12/13 13:17:16;;;;;;;9.98;7.55;;;;;;;;;;5066081;28;20185;-76
2022/12/13 13:19:44;;;;;;;10.10;7.07;;;;;;;;;;5069053;28;20519;-77
2022/12/13 13:22:26;;;;;;;12.80;8.18;;;;;;;;;;5067557;28;20499;-76
2022/12/13 13:25:07;;;;;;;11.13;7.78;;;;;;;;;;5061498;28;20120;-77
2022/12/13 13:27:40;;;;;;;13.35;8.98;;;;;;;;;;5068183;28;20098;-77
2022/12/13 13:30:15;;;;;;;11.23;8.57;;;;;;;;;;5062550;28;20127;-77
2022/12/13 13:32:41;;;;;;;13.38;8.85;;;;;;;;;;5065961;28;20424;-76
2022/12/13 13:35:26;;;;;;;13.00;8.27;;;;;;;;;;5065738;28;20400;-76
2022/12/13 13:37:52;;;;;;;11.68;9.13;;;;;;;;;;5058615;28;20099;-76
2022/12/13 13:40:24;;;;;;;11.88;8.93;;;;;;;;;;5063658;28;20487;-77
2022/12/13 13:43:15;;;;;;;13.35;10.02;;;;;;;;;;5063779;28;20135;-77
2022/12/13 13:45:56;;;;;;;11.68;9.57;;;;;;;;;;5054769;28;20076;-77
2022/12/13 13:48:35;;;;;;;12.40;9.77;;;;;;;;;;5058415;28;20036;-76
2022/12/13 13:51:14;;;;;;;13.60;10.00;;;;;;;;;;5062515;28;20068;-76
2022/12/13 13:53:40;;;;;;;15.98;11.35;;;;;;;;;;5067221;28;20040;-76
2022/12/13 13:56:06;;;;;;;14.68;10.18;;;;;;;;;;5063311;28;20040;-76
2022/12/13 13:59:05;;;;;;;13.68;10.32;;;;;;;;;;5067595;28;20040;-76
2022/12/13 14:01:31;;;;;;;16.27;11.02;;;;;;;;;;5032797;28;20527;-76
2022/12/13 14:03:57;;;;;;;14.95;11.07;;;;;;;;;;5065334;28;20064;-76
2022/12/13 14:06:35;;;;;;;13.98;11.48;;;;;;;;;;5066422;28;20105;-76
2022/12/13 14:09:14;;;;;;;15.20;11.73;;;;;;;;;;5067361;28;20037;-76
2022/12/13 14:11:40;;;;;;;16.02;12.50;;;;;;;;;;5067366;28;20087;-76
2022/12/13 14:14:24;;;;;;;16.60;13.00;;;;;;;;;;5067266;28;20037;-76
2022/12/13 14:17:09;;;;;;;17.00;12.38;;;;;;;;;;5066296;28;20105;-76
2022/12/13 14:19:35;;;;;;;16.20;12.05;;;;;;;;;;5061779;28;20432;-76
2022/12/13 14:22:15;;;;;;;16.25;12.30;;;;;;;;;;5061282;28;20055;-76
2022/12/13 14:24:56;;;;;;;18.15;12.70;;;;;;;;;;5067391;28;20060;-76
2022/12/13 14:27:34;;;;;;;16.52;12.43;;;;;;;;;;5065891;28;20053;-76
2022/12/13 14:30:00;;;;;;;17.83;13.55;;;;;;;;;;5068992;28;20045;-76
2022/12/13 14:32:28;;;;;;;18.98;14.23;;;;;;;;;;5066802;28;20059;-76
2022/12/13 14:34:57;;;;;;;19.55;13.77;;;;;;;;;;5066057;28;20044;-75
2022/12/13 14:37:29;;;;;;;19.38;13.88;;;;;;;;;;5066497;28;20051;-76